Accueil
METAR-TAF:

METAR-TAF

Aéroports :

Aéroport international de Tân Sơn Nhất

Hô-Chi-Minh-Ville, Viêtnam

latitude: 10-49N, longitude: 106-40E, altitude: 19 m

Observation

Le bulletin a été fait il y a 41 minutes, à 16:30 UTC
Vent 7 kt de sud, variant entre sud-est et sud/sud-ouest
Température 29°C
Humidité 84%
Pression 1010 hPa
Visibilité 10 km ou plus
Quelques nuages à une hauteur de 2000 ft

METAR: VVTS 221630Z 17007KT 140V200 9999 FEW020 29/26 Q1010 NOSIG

Heure: 00:11 (17:11 UTC)

Prévision

Le bulletin a été fait il y a 6 heures et 11 minutes, à 11:00 UTC
Prévision valable du 22 à 12 UTC au 23 à 18 UTC
Vent 10 kt de sud/sud-est
Visibilité 10 km ou plus
Nuages épars à une hauteur de 1700 ft
Nuages épars à une hauteur de 4000 ft

TAF: VVTS 221100Z 2212/2318 16010KT 9999 SCT017 SCT040

Observations et prévisions météorologiques de plus de 4000 aéroports (messages METAR et TAF).

Les stations disponibles sont représentées par des disques jaunes et rouges sur la carte.

Passer la souris dessus pour voir le nom de la station.

Cliquer dessus pour voir les observations et prévisions météorologiques.

Pour changer de carte: cliquez sur les boutons verts avec une croix noire pour zoomer, sur le bouton vert avec un tiret pour effectuer un zoom arrière, ou sur les flèches vertes pour les cartes adjacentes.


METAR-TAF: